createdAt,value
2022-08-09T00:04:15.409Z,28.43
2022-08-09T00:09:31.187Z,28.10
2022-08-09T00:14:38.576Z,27.81
2022-08-09T00:19:43.009Z,27.94
2022-08-09T00:24:51.658Z,28.03
2022-08-09T00:30:23.723Z,27.92
2022-08-09T00:35:20.445Z,27.48
2022-08-09T00:40:31.032Z,27.29
2022-08-09T00:45:36.699Z,27.20
2022-08-09T00:50:40.285Z,26.97
2022-08-09T00:56:05.002Z,26.85
2022-08-09T01:01:19.738Z,26.74
2022-08-09T01:06:53.849Z,26.48
2022-08-09T01:12:08.615Z,26.40
2022-08-09T01:17:24.163Z,26.24
2022-08-09T01:22:42.846Z,26.24
2022-08-09T01:27:50.829Z,26.05
2022-08-09T01:32:58.653Z,25.84
2022-08-09T01:38:10.436Z,25.75
2022-08-09T01:43:20.959Z,25.61
2022-08-09T01:48:31.571Z,25.60
2022-08-09T01:53:41.556Z,25.46
2022-08-09T01:58:50.677Z,25.28
2022-08-09T02:03:57.025Z,25.10
2022-08-09T02:09:01.125Z,24.94
2022-08-09T02:14:09.599Z,24.80
2022-08-09T02:19:13.560Z,24.55
2022-08-09T02:24:26.219Z,24.37
2022-08-09T02:29:38.528Z,24.20
2022-08-09T02:34:51.926Z,24.01
2022-08-09T02:40:10.560Z,23.84
2022-08-09T02:45:21.395Z,23.40
2022-08-09T02:50:36.086Z,23.28
2022-08-09T02:55:57.666Z,23.14
2022-08-09T03:01:07.762Z,22.85
2022-08-09T03:06:13.449Z,22.70
2022-08-09T03:11:29.672Z,22.48
2022-08-09T03:16:47.376Z,22.51
2022-08-09T03:21:53.051Z,22.44
2022-08-09T03:26:58.209Z,22.52
2022-08-09T03:32:04.244Z,22.50
2022-08-09T03:37:56.179Z,22.18
2022-08-09T03:42:35.807Z,22.16
2022-08-09T03:47:44.147Z,21.95
2022-08-09T03:52:50.762Z,21.84
2022-08-09T03:58:03.519Z,21.97
2022-08-09T04:03:35.336Z,21.35
2022-08-09T04:08:39.317Z,21.26
2022-08-09T04:14:36.766Z,21.38
2022-08-09T04:19:11.110Z,21.50
2022-08-09T04:24:19.546Z,21.32
2022-08-09T04:29:23.759Z,21.43
2022-08-09T04:34:35.201Z,21.48
2022-08-09T04:39:40.914Z,21.49
2022-08-09T04:44:49.089Z,21.52
2022-08-09T04:49:55.856Z,21.51
2022-08-09T04:55:01.022Z,21.44
2022-08-09T05:00:06.084Z,21.39
2022-08-09T05:05:13.168Z,21.28
2022-08-09T05:10:36.839Z,21.27
2022-08-09T05:15:43.224Z,21.20
2022-08-09T05:20:53.549Z,21.07
2022-08-09T05:25:56.848Z,20.95
2022-08-09T05:31:00.536Z,21.04
2022-08-09T05:36:14.867Z,20.77
2022-08-09T05:41:19.174Z,20.90
2022-08-09T05:46:23.399Z,20.74
2022-08-09T05:51:43.154Z,20.82
2022-08-09T05:56:55.062Z,20.74
2022-08-09T06:02:00.286Z,20.48
2022-08-09T06:07:06.576Z,20.39
2022-08-09T06:12:12.942Z,20.34
2022-08-09T06:17:16.592Z,20.36
2022-08-09T06:22:28.697Z,20.33
2022-08-09T06:27:42.260Z,20.36
2022-08-09T06:33:13.734Z,20.40
2022-08-09T06:38:12.037Z,20.49
2022-08-09T06:43:19.457Z,20.41
2022-08-09T06:48:30.705Z,20.26
2022-08-09T06:53:38.362Z,20.36
2022-08-09T07:00:48.976Z,20.38
2022-08-09T07:04:06.227Z,20.04
2022-08-09T07:09:54.832Z,19.92
2022-08-09T07:14:39.250Z,19.86
2022-08-09T07:19:42.859Z,20.06
2022-08-09T07:24:53.219Z,19.97
2022-08-09T07:29:58.612Z,20.02
2022-08-09T07:35:02.647Z,19.95
2022-08-09T07:40:09.614Z,19.92
2022-08-09T07:45:22.809Z,19.92
2022-08-09T07:50:40.702Z,20.09
2022-08-09T07:56:03.597Z,19.79
2022-08-09T08:01:11.283Z,19.74
2022-08-09T08:06:15.055Z,19.84
2022-08-09T08:12:11.391Z,19.92
2022-08-09T08:17:01.092Z,19.99
2022-08-09T08:22:11.724Z,19.82
2022-08-09T08:27:18.710Z,19.78
2022-08-09T08:32:29.189Z,19.77
2022-08-09T08:37:41.659Z,19.60
2022-08-09T08:42:59.809Z,19.68
2022-08-09T08:48:03.689Z,19.84
2022-08-09T08:53:11.993Z,19.80
2022-08-09T08:58:27.119Z,19.65
2022-08-09T09:03:37.886Z,19.49
2022-08-09T09:08:43.777Z,19.64
2022-08-09T09:14:01.320Z,19.69
2022-08-09T09:19:37.149Z,19.60
2022-08-09T09:24:32.482Z,19.49
2022-08-09T09:30:08.317Z,19.26
2022-08-09T09:35:08.992Z,18.97
2022-08-09T09:40:13.631Z,18.83
2022-08-09T09:45:26.696Z,18.76
2022-08-09T09:50:49.637Z,18.77
2022-08-09T09:56:03.946Z,18.79
2022-08-09T10:01:37.359Z,18.73
2022-08-09T10:06:46.775Z,18.73
2022-08-09T10:12:07.630Z,18.90
2022-08-09T10:17:40.407Z,18.86
2022-08-09T10:22:46.527Z,18.78
2022-08-09T10:27:57.106Z,18.70
2022-08-09T10:33:04.072Z,18.75
2022-08-09T10:38:54.637Z,18.62
2022-08-09T10:43:50.621Z,18.52
2022-08-09T10:49:10.512Z,18.45
2022-08-09T10:54:14.138Z,18.55
2022-08-09T10:59:55.296Z,18.74
2022-08-09T11:05:25.321Z,18.71
2022-08-09T11:10:57.807Z,18.69
2022-08-09T11:16:37.235Z,18.59
2022-08-09T11:22:16.659Z,18.69
2022-08-09T11:28:02.902Z,18.67
2022-08-09T11:33:01.538Z,18.69
2022-08-09T11:38:22.186Z,18.68
2022-08-09T11:43:47.429Z,18.18
2022-08-09T11:48:53.953Z,17.82
2022-08-09T11:54:33.184Z,17.65
2022-08-09T11:59:37.952Z,17.71
2022-08-09T12:04:42.141Z,17.55
2022-08-09T12:09:50.695Z,17.49
2022-08-09T12:15:07.429Z,17.76
2022-08-09T12:20:16.308Z,17.72
2022-08-09T12:25:36.457Z,17.56
2022-08-09T12:30:41.457Z,17.73
2022-08-09T12:35:47.852Z,17.66
2022-08-09T12:40:56.422Z,17.50
2022-08-09T12:46:00.925Z,17.53
2022-08-09T12:51:04.710Z,17.51
2022-08-09T12:56:44.052Z,17.48
2022-08-09T13:01:46.972Z,17.51
2022-08-09T13:06:54.106Z,17.38
2022-08-09T13:12:05.352Z,17.44
2022-08-09T13:17:21.814Z,17.47
2022-08-09T13:23:05.764Z,17.59
2022-08-09T13:28:18.985Z,17.59
2022-08-09T13:33:52.431Z,17.51
2022-08-09T13:39:00.971Z,17.57
2022-08-09T13:44:17.123Z,17.53
2022-08-09T13:49:21.407Z,17.60
2022-08-09T13:54:42.887Z,17.69
2022-08-09T13:59:54.363Z,17.77
2022-08-09T14:05:00.197Z,17.84
2022-08-09T14:10:04.726Z,18.06
2022-08-09T14:15:19.781Z,18.30
2022-08-09T14:20:33.652Z,18.58
2022-08-09T14:25:42.899Z,18.93
2022-08-09T14:30:48.509Z,19.31
2022-08-09T14:35:53.603Z,19.71
2022-08-09T14:41:02.329Z,20.34
2022-08-09T14:46:58.131Z,20.87
2022-08-09T14:51:42.338Z,21.25
2022-08-09T14:56:57.484Z,21.14
2022-08-09T15:02:02.894Z,20.54
2022-08-09T15:07:10.058Z,20.23
2022-08-09T15:12:13.971Z,20.04
2022-08-09T15:17:19.241Z,20.83
2022-08-09T15:22:22.862Z,21.65
2022-08-09T15:27:29.881Z,22.18
2022-08-09T15:32:53.483Z,22.81
2022-08-09T15:38:11.176Z,23.16
2022-08-09T15:43:15.507Z,24.07
2022-08-09T15:48:28.743Z,24.94
2022-08-09T15:54:05.305Z,25.43
2022-08-09T15:58:57.398Z,25.59
2022-08-09T16:04:03.198Z,26.25
2022-08-09T16:09:07.290Z,26.57
2022-08-09T16:14:10.897Z,27.06
2022-08-09T16:19:19.128Z,27.30
2022-08-09T16:24:33.797Z,27.52
2022-08-09T16:29:50.638Z,27.85
2022-08-09T16:34:58.734Z,27.95
2022-08-09T16:40:04.595Z,28.14
2022-08-09T16:45:10.245Z,27.95
2022-08-09T16:50:29.779Z,28.39
2022-08-09T16:56:00.279Z,27.70
2022-08-09T17:01:00.238Z,28.10
2022-08-09T17:06:28.227Z,27.88
2022-08-09T17:11:40.811Z,27.97
2022-08-09T17:16:46.021Z,28.17
2022-08-09T17:21:55.612Z,28.14
2022-08-09T17:26:59.431Z,28.28
2022-08-09T17:32:03.005Z,28.83
2022-08-09T17:37:16.027Z,28.60
2022-08-09T17:42:42.116Z,29.17
2022-08-09T17:47:49.762Z,29.34
2022-08-09T17:53:01.090Z,29.84
2022-08-09T17:58:09.520Z,29.31
2022-08-09T18:03:13.421Z,29.90
2022-08-09T18:08:22.001Z,30.02
2022-08-09T18:13:39.306Z,30.48
2022-08-09T18:18:54.763Z,30.55
2022-08-09T18:24:11.082Z,30.70
2022-08-09T18:30:42.912Z,30.74
2022-08-09T18:34:40.991Z,30.98
2022-08-09T18:39:48.357Z,31.29
2022-08-09T18:44:52.869Z,30.73
2022-08-09T18:50:03.045Z,31.01
2022-08-09T18:55:13.858Z,30.96
2022-08-09T19:00:20.536Z,30.64
2022-08-09T19:05:28.611Z,30.48
2022-08-09T19:10:50.861Z,30.04
2022-08-09T19:15:58.741Z,29.71
2022-08-09T19:21:02.687Z,29.72
2022-08-09T19:26:08.278Z,30.12
2022-08-09T19:31:15.370Z,30.22
2022-08-09T19:36:20.466Z,30.05
2022-08-09T19:41:33.161Z,30.30
2022-08-09T19:46:50.257Z,29.90
2022-08-09T19:51:56.855Z,30.02
2022-08-09T19:57:02.309Z,29.90
2022-08-09T20:04:06.929Z,29.97
2022-08-09T20:07:56.743Z,30.26
2022-08-09T20:12:55.033Z,29.89
2022-08-09T20:17:59.809Z,29.73
2022-08-09T20:23:03.380Z,30.24
2022-08-09T20:28:08.627Z,30.30
2022-08-09T20:33:16.577Z,29.79
2022-08-09T20:38:33.127Z,30.07
2022-08-09T20:43:45.687Z,30.33
2022-08-09T20:49:02.164Z,30.08
2022-08-09T20:54:06.455Z,30.00
2022-08-09T20:59:50.087Z,29.49
2022-08-09T21:05:52.230Z,29.49
2022-08-09T21:10:06.611Z,29.49
2022-08-09T21:15:13.389Z,29.32
2022-08-09T21:20:22.867Z,29.04
2022-08-09T21:25:38.197Z,28.95
2022-08-09T21:30:43.812Z,29.28
2022-08-09T21:35:51.148Z,29.23
2022-08-09T21:40:55.089Z,29.06
2022-08-09T21:46:00.925Z,29.23
2022-08-09T21:51:13.346Z,29.01
2022-08-09T21:56:34.047Z,28.56
2022-08-09T22:01:59.067Z,28.54
2022-08-09T22:07:05.504Z,28.21
2022-08-09T22:12:19.076Z,28.03
2022-08-09T22:17:34.642Z,27.97
2022-08-09T22:22:49.903Z,27.43
2022-08-09T22:27:53.496Z,27.66
2022-08-09T22:33:03.685Z,27.34
2022-08-09T22:38:14.763Z,27.47
2022-08-09T22:44:02.468Z,27.46
2022-08-09T22:48:50.365Z,27.28
2022-08-09T22:54:02.269Z,27.09
2022-08-09T22:59:55.833Z,26.92
2022-08-09T23:04:32.714Z,26.52
2022-08-09T23:09:36.553Z,26.66
2022-08-09T23:14:42.133Z,26.15
2022-08-09T23:20:00.643Z,25.99
2022-08-09T23:25:11.894Z,25.54
2022-08-09T23:30:15.597Z,25.62
2022-08-09T23:35:20.832Z,25.52
2022-08-09T23:40:24.399Z,25.47
2022-08-09T23:45:36.375Z,25.81
2022-08-09T23:50:43.637Z,25.91
2022-08-09T23:55:49.748Z,25.77
